createdAt,value
2019-03-23T00:00:26.764Z,6.25
2019-03-23T00:01:02.090Z,6.25
2019-03-23T00:01:36.471Z,6.25
2019-03-23T00:02:10.355Z,6.25
2019-03-23T00:02:44.271Z,6.25
2019-03-23T00:03:18.071Z,6.25
2019-03-23T00:03:52.064Z,6.25
2019-03-23T00:04:25.939Z,6.25
2019-03-23T00:04:59.798Z,6.25
2019-03-23T00:05:33.569Z,6.25
2019-03-23T00:06:07.415Z,6.25
2019-03-23T00:06:41.242Z,6.19
2019-03-23T00:07:15.099Z,6.25
2019-03-23T00:07:48.958Z,6.19
2019-03-23T00:08:22.802Z,6.19
2019-03-23T00:08:56.675Z,6.19
2019-03-23T00:09:30.510Z,6.19
2019-03-23T00:10:05.307Z,6.19
2019-03-23T00:10:39.057Z,6.19
2019-03-23T00:11:12.982Z,6.19
2019-03-23T00:11:47.532Z,6.19
2019-03-23T00:12:21.395Z,6.12
2019-03-23T00:12:56.477Z,6.12
2019-03-23T00:13:30.441Z,6.12
2019-03-23T00:14:06.043Z,6.19
2019-03-23T00:14:43.085Z,6.12
2019-03-23T00:15:18.839Z,6.12
2019-03-23T00:15:52.696Z,6.12
2019-03-23T00:16:28.842Z,6.12
2019-03-23T00:17:02.814Z,6.12
2019-03-23T00:17:38.243Z,6.12
2019-03-23T00:18:12.410Z,6.12
2019-03-23T00:18:46.287Z,6.12
2019-03-23T00:19:20.130Z,6.12
2019-03-23T00:19:53.890Z,6.12
2019-03-23T00:20:29.012Z,6.12
2019-03-23T00:21:03.099Z,6.12
2019-03-23T00:21:36.949Z,6.12
2019-03-23T00:22:10.675Z,6.12
2019-03-23T00:22:44.642Z,6.12
2019-03-23T00:23:19.619Z,6.12
2019-03-23T00:23:53.368Z,6.12
2019-03-23T00:24:27.349Z,6.12
2019-03-23T00:25:01.316Z,6.12
2019-03-23T00:25:35.199Z,6.12
2019-03-23T00:26:10.235Z,6.12
2019-03-23T00:26:45.319Z,6.12
2019-03-23T00:27:19.210Z,6.12
2019-03-23T00:27:54.669Z,6.12
2019-03-23T00:28:28.545Z,6.12
2019-03-23T00:29:02.563Z,6.12
2019-03-23T00:29:36.425Z,6.12
2019-03-23T00:30:11.669Z,6.12
2019-03-23T00:30:45.625Z,6.12
2019-03-23T00:31:19.504Z,6.12
2019-03-23T00:31:53.396Z,6.12
2019-03-23T00:32:27.276Z,6.12
2019-03-23T00:33:01.127Z,6.12
2019-03-23T00:33:34.893Z,6.12
2019-03-23T00:34:08.780Z,6.12
2019-03-23T00:34:42.616Z,6.12
2019-03-23T00:35:16.614Z,6.12
2019-03-23T00:35:50.462Z,6.12
2019-03-23T00:36:25.436Z,6.12
2019-03-23T00:36:59.323Z,6.12
2019-03-23T00:37:33.168Z,6.12
2019-03-23T00:38:08.669Z,6.12
2019-03-23T00:38:42.522Z,6.12
2019-03-23T00:39:16.358Z,6.12
2019-03-23T00:39:51.640Z,6.12
2019-03-23T00:40:25.378Z,6.12
2019-03-23T00:40:59.123Z,6.12
2019-03-23T00:41:32.909Z,6.12
2019-03-23T00:42:06.869Z,6.12
2019-03-23T00:42:41.828Z,6.12
2019-03-23T00:43:15.591Z,6.06
2019-03-23T00:43:49.467Z,6.06
2019-03-23T00:44:23.441Z,6.06
2019-03-23T00:44:58.194Z,6.06
2019-03-23T00:45:32.040Z,6.06
2019-03-23T00:46:06.285Z,6.06
2019-03-23T00:46:40.358Z,6.06
2019-03-23T00:47:15.810Z,6.06
2019-03-23T00:47:49.663Z,6.06
2019-03-23T00:48:24.145Z,6.06
2019-03-23T00:48:58.088Z,6.06
2019-03-23T00:49:31.857Z,6.06
2019-03-23T00:50:06.723Z,6.06
2019-03-23T00:50:40.507Z,6.06
2019-03-23T00:51:14.224Z,6.06
2019-03-23T00:51:48.156Z,6.06
2019-03-23T00:52:22.003Z,6.00
2019-03-23T00:52:55.794Z,6.00
2019-03-23T00:53:29.699Z,6.00
2019-03-23T00:54:03.664Z,6.00
2019-03-23T00:54:37.475Z,6.00
2019-03-23T00:55:11.429Z,6.00
2019-03-23T00:55:45.301Z,6.00
2019-03-23T00:56:18.972Z,6.00
2019-03-23T00:56:52.811Z,6.00
2019-03-23T00:57:26.634Z,6.00
2019-03-23T00:58:00.548Z,6.00
2019-03-23T00:58:34.403Z,6.00
2019-03-23T00:59:08.202Z,6.00
2019-03-23T00:59:42.027Z,6.00
2019-03-23T01:00:16.072Z,6.00
2019-03-23T01:00:50.045Z,6.00
2019-03-23T01:01:24.063Z,6.00
2019-03-23T01:01:57.867Z,5.94
2019-03-23T01:02:32.814Z,5.94
2019-03-23T01:03:07.798Z,5.94
2019-03-23T01:03:41.534Z,5.94
2019-03-23T01:04:15.366Z,5.94
2019-03-23T01:04:48.998Z,5.94
2019-03-23T01:05:22.887Z,5.94
2019-03-23T01:05:56.751Z,5.94
2019-03-23T01:06:30.633Z,5.94
2019-03-23T01:07:04.566Z,5.94
2019-03-23T01:07:38.431Z,5.87
2019-03-23T01:08:12.387Z,5.87
2019-03-23T01:08:46.508Z,5.87
2019-03-23T01:09:20.284Z,5.87
2019-03-23T01:09:54.076Z,5.87
2019-03-23T01:10:28.110Z,5.87
2019-03-23T01:11:01.869Z,5.87
2019-03-23T01:11:35.828Z,5.87
2019-03-23T01:12:09.673Z,5.87
2019-03-23T01:12:43.542Z,5.87
2019-03-23T01:13:17.366Z,5.81
2019-03-23T01:13:51.107Z,5.87
2019-03-23T01:14:24.946Z,5.87
2019-03-23T01:14:58.666Z,5.87
2019-03-23T01:15:32.488Z,5.87
2019-03-23T01:16:06.243Z,5.87
2019-03-23T01:16:40.078Z,5.87
2019-03-23T01:17:14.102Z,5.87
2019-03-23T01:17:47.865Z,5.87
2019-03-23T01:18:21.752Z,5.87
2019-03-23T01:18:56.454Z,5.87
2019-03-23T01:19:30.201Z,5.87
2019-03-23T01:20:06.350Z,5.81
2019-03-23T01:20:49.321Z,5.87
2019-03-23T01:21:16.274Z,5.81
2019-03-23T01:21:50.212Z,5.81
2019-03-23T01:22:25.160Z,5.87
2019-03-23T01:22:59.109Z,5.87
2019-03-23T01:23:33.080Z,5.81
2019-03-23T01:24:07.656Z,5.81
2019-03-23T01:24:41.508Z,5.81
2019-03-23T01:25:15.487Z,5.81
2019-03-23T01:25:50.548Z,5.81
2019-03-23T01:26:24.284Z,5.81
2019-03-23T01:26:58.149Z,5.81
2019-03-23T01:27:32.032Z,5.81
2019-03-23T01:28:05.776Z,5.81
2019-03-23T01:28:39.536Z,5.81
2019-03-23T01:29:13.280Z,5.81
2019-03-23T01:29:47.113Z,5.81
2019-03-23T01:30:20.950Z,5.81
2019-03-23T01:30:54.792Z,5.81
2019-03-23T01:31:28.905Z,5.81
2019-03-23T01:32:02.747Z,5.81
2019-03-23T01:32:36.589Z,5.81
2019-03-23T01:33:10.432Z,5.81
2019-03-23T01:33:44.274Z,5.75
2019-03-23T01:34:18.369Z,5.81
2019-03-23T01:34:52.062Z,5.81
2019-03-23T01:35:25.922Z,5.81
2019-03-23T01:35:59.855Z,5.81
2019-03-23T01:36:34.475Z,5.81
2019-03-23T01:37:08.342Z,5.81
2019-03-23T01:37:42.192Z,5.81
2019-03-23T01:38:16.058Z,5.81
2019-03-23T01:38:50.038Z,5.81
2019-03-23T01:39:24.857Z,5.81
2019-03-23T01:39:58.716Z,5.81
2019-03-23T01:40:32.554Z,5.81
2019-03-23T01:41:06.446Z,5.81
2019-03-23T01:41:40.160Z,5.81
2019-03-23T01:42:13.909Z,5.81
2019-03-23T01:42:47.839Z,5.81
2019-03-23T01:43:21.682Z,5.81
2019-03-23T01:43:55.436Z,5.81
2019-03-23T01:44:29.280Z,5.81
2019-03-23T01:45:05.791Z,5.81
2019-03-23T01:45:39.672Z,5.81
2019-03-23T01:46:13.654Z,5.81
2019-03-23T01:46:47.530Z,5.81
2019-03-23T01:47:21.592Z,5.81
2019-03-23T01:47:55.553Z,5.81
2019-03-23T01:48:29.402Z,5.81
2019-03-23T01:49:03.376Z,5.81
2019-03-23T01:49:37.239Z,5.81
2019-03-23T01:50:11.324Z,5.81
2019-03-23T01:50:45.060Z,5.75
2019-03-23T01:51:18.913Z,5.75
2019-03-23T01:51:52.748Z,5.75
2019-03-23T01:52:26.736Z,5.75
2019-03-23T01:53:00.612Z,5.81
2019-03-23T01:53:34.508Z,5.81
2019-03-23T01:54:08.360Z,5.81
2019-03-23T01:54:42.356Z,5.81
2019-03-23T01:55:17.390Z,5.81
2019-03-23T01:55:51.377Z,5.75
2019-03-23T01:56:25.338Z,5.75
2019-03-23T01:56:59.175Z,5.75
2019-03-23T01:57:33.019Z,5.75
2019-03-23T01:58:06.893Z,5.75
2019-03-23T01:58:41.145Z,5.75
2019-03-23T01:59:15.015Z,5.75
2019-03-23T01:59:48.756Z,5.75
2019-03-23T02:00:22.664Z,5.75
2019-03-23T02:00:56.674Z,5.75
2019-03-23T02:01:30.577Z,5.75
2019-03-23T02:02:05.968Z,5.75
2019-03-23T02:02:40.130Z,5.75
2019-03-23T02:03:13.870Z,5.75
2019-03-23T02:03:47.718Z,5.75
2019-03-23T02:04:21.499Z,5.75
2019-03-23T02:04:55.347Z,5.75
2019-03-23T02:05:29.038Z,5.69
2019-03-23T02:06:04.391Z,5.69
2019-03-23T02:06:38.191Z,5.69
2019-03-23T02:07:14.306Z,5.69
2019-03-23T02:07:48.262Z,5.69
2019-03-23T02:08:22.105Z,5.69
2019-03-23T02:08:55.832Z,5.69
2019-03-23T02:09:29.735Z,5.69
2019-03-23T02:10:04.278Z,5.69
2019-03-23T02:10:39.136Z,5.69
2019-03-23T02:11:13.253Z,5.69
2019-03-23T02:11:47.088Z,5.69
2019-03-23T02:12:20.949Z,5.69
2019-03-23T02:12:56.212Z,5.69
2019-03-23T02:13:29.995Z,5.69
2019-03-23T02:14:03.894Z,5.69
2019-03-23T02:14:37.638Z,5.69
2019-03-23T02:15:12.320Z,5.69
2019-03-23T02:15:47.653Z,5.69
2019-03-23T02:16:21.683Z,5.69
2019-03-23T02:16:55.554Z,5.69
2019-03-23T02:17:29.487Z,5.69
2019-03-23T02:18:03.475Z,5.69
2019-03-23T02:18:37.316Z,5.69
2019-03-23T02:19:11.156Z,5.69
2019-03-23T02:19:45.120Z,5.69
2019-03-23T02:20:19.070Z,5.69
2019-03-23T02:20:53.124Z,5.69
2019-03-23T02:21:27.016Z,5.69
2019-03-23T02:22:00.850Z,5.69
2019-03-23T02:22:34.840Z,5.69
2019-03-23T02:23:08.690Z,5.69
2019-03-23T02:23:42.437Z,5.69
2019-03-23T02:24:16.210Z,5.69
2019-03-23T02:24:50.933Z,5.69
2019-03-23T02:25:24.766Z,5.69
2019-03-23T02:25:58.563Z,5.69
2019-03-23T02:26:33.544Z,5.62
2019-03-23T02:27:07.502Z,5.69
2019-03-23T02:27:41.750Z,5.69
2019-03-23T02:28:15.614Z,5.69
2019-03-23T02:28:49.575Z,5.69
2019-03-23T02:29:23.280Z,5.69
2019-03-23T02:29:57.174Z,5.69
2019-03-23T02:30:31.024Z,5.69
2019-03-23T02:31:07.199Z,5.69
2019-03-23T02:31:40.535Z,5.69
2019-03-23T02:32:14.302Z,5.69
2019-03-23T02:32:48.167Z,5.69
2019-03-23T02:33:21.926Z,5.69
2019-03-23T02:33:55.825Z,5.69
2019-03-23T02:34:29.580Z,5.69
2019-03-23T02:35:03.678Z,5.69
2019-03-23T02:35:37.559Z,5.69
2019-03-23T02:36:11.347Z,5.69
2019-03-23T02:36:46.310Z,5.69
2019-03-23T02:37:27.635Z,5.69
2019-03-23T02:37:55.974Z,5.69
2019-03-23T02:38:29.906Z,5.69
2019-03-23T02:39:05.604Z,5.69
2019-03-23T02:39:39.352Z,5.69
2019-03-23T02:40:13.612Z,5.69
2019-03-23T02:40:47.453Z,5.69
2019-03-23T02:41:21.436Z,5.69
2019-03-23T02:41:55.337Z,5.69
2019-03-23T02:42:29.464Z,5.69
2019-03-23T02:43:03.331Z,5.69
2019-03-23T02:43:37.625Z,5.69
2019-03-23T02:44:11.469Z,5.69
2019-03-23T02:44:45.232Z,5.69
2019-03-23T02:45:19.388Z,5.69
2019-03-23T02:45:53.240Z,5.69
2019-03-23T02:46:27.220Z,5.69
2019-03-23T02:47:01.060Z,5.62
2019-03-23T02:47:36.191Z,5.62
2019-03-23T02:48:10.020Z,5.62
2019-03-23T02:48:43.858Z,5.62
2019-03-23T02:49:17.574Z,5.62
2019-03-23T02:49:51.453Z,5.62
2019-03-23T02:50:25.049Z,5.62
2019-03-23T02:50:59.037Z,5.62
2019-03-23T02:51:32.738Z,5.62
2019-03-23T02:52:06.550Z,5.62
2019-03-23T02:52:40.274Z,5.69
2019-03-23T02:53:13.982Z,5.69
2019-03-23T02:53:47.891Z,5.69
2019-03-23T02:54:21.836Z,5.69
2019-03-23T02:54:55.550Z,5.69
2019-03-23T02:55:29.305Z,5.62
2019-03-23T02:56:03.181Z,5.62
2019-03-23T02:56:37.048Z,5.62
2019-03-23T02:57:10.857Z,5.62
2019-03-23T02:57:44.792Z,5.69
2019-03-23T02:58:18.499Z,5.69
2019-03-23T02:58:53.919Z,5.62
2019-03-23T02:59:27.693Z,5.62
2019-03-23T03:00:01.612Z,5.62
2019-03-23T03:00:36.704Z,5.62
2019-03-23T03:01:10.824Z,5.62
2019-03-23T03:01:44.661Z,5.62
2019-03-23T03:02:18.512Z,5.62
2019-03-23T03:02:52.396Z,5.62
2019-03-23T03:03:26.261Z,5.62
2019-03-23T03:04:00.133Z,5.62
2019-03-23T03:04:34.013Z,5.62
2019-03-23T03:05:08.805Z,5.62
2019-03-23T03:05:42.649Z,5.56
2019-03-23T03:06:16.463Z,5.56
2019-03-23T03:06:50.310Z,5.56
2019-03-23T03:07:24.211Z,5.56
2019-03-23T03:07:58.158Z,5.56
2019-03-23T03:08:31.847Z,5.56
2019-03-23T03:09:06.290Z,5.56
2019-03-23T03:09:39.984Z,5.56
2019-03-23T03:10:42.354Z,5.56
2019-03-23T03:11:16.148Z,5.56
2019-03-23T03:11:50.088Z,5.56
2019-03-23T03:12:23.811Z,5.56
2019-03-23T03:12:57.864Z,5.56
2019-03-23T03:13:31.643Z,5.56
2019-03-23T03:14:05.566Z,5.56
2019-03-23T03:14:39.422Z,5.56
2019-03-23T03:15:13.410Z,5.56
2019-03-23T03:15:47.105Z,5.56
2019-03-23T03:16:20.915Z,5.62
2019-03-23T03:16:54.700Z,5.56
2019-03-23T03:17:28.523Z,5.56
2019-03-23T03:18:02.198Z,5.56
2019-03-23T03:18:35.925Z,5.56
2019-03-23T03:19:09.794Z,5.56
2019-03-23T03:19:43.590Z,5.56
2019-03-23T03:20:17.410Z,5.56
2019-03-23T03:20:52.278Z,5.56
2019-03-23T03:21:26.059Z,5.56
2019-03-23T03:21:59.939Z,5.56
2019-03-23T03:22:33.638Z,5.56
2019-03-23T03:23:07.446Z,5.56
2019-03-23T03:23:41.146Z,5.56
2019-03-23T03:24:15.304Z,5.56
2019-03-23T03:24:49.118Z,5.56
2019-03-23T03:25:23.366Z,5.56
2019-03-23T03:25:57.162Z,5.56
2019-03-23T03:26:30.999Z,5.56
2019-03-23T03:27:04.919Z,5.56
2019-03-23T03:27:38.852Z,5.56
2019-03-23T03:28:12.563Z,5.56
2019-03-23T03:28:46.297Z,5.56
2019-03-23T03:29:19.976Z,5.62
2019-03-23T03:29:54.021Z,5.62
2019-03-23T03:30:27.750Z,5.62
2019-03-23T03:31:01.714Z,5.62
2019-03-23T03:31:36.834Z,5.62
2019-03-23T03:32:10.712Z,5.62
2019-03-23T03:32:45.472Z,5.69
2019-03-23T03:33:19.350Z,5.69
2019-03-23T03:33:53.000Z,5.75
2019-03-23T03:34:26.908Z,5.75
2019-03-23T03:35:00.898Z,5.75
2019-03-23T03:35:34.923Z,5.75
2019-03-23T03:36:08.671Z,5.75
2019-03-23T03:36:43.121Z,5.81
2019-03-23T03:37:17.136Z,5.81
2019-03-23T03:37:56.785Z,5.81
2019-03-23T03:38:26.859Z,5.81
2019-03-23T03:39:00.632Z,5.81
2019-03-23T03:39:34.400Z,5.81
2019-03-23T03:40:10.256Z,5.81
2019-03-23T03:40:43.991Z,5.81
2019-03-23T03:41:17.721Z,5.87
2019-03-23T03:41:51.575Z,5.87
2019-03-23T03:42:25.404Z,5.94
2019-03-23T03:42:59.273Z,5.94
2019-03-23T03:43:33.161Z,5.94
2019-03-23T03:44:07.010Z,5.94
2019-03-23T03:44:40.780Z,5.94
2019-03-23T03:45:22.932Z,6.00
2019-03-23T03:45:56.940Z,6.00
2019-03-23T03:46:31.933Z,6.06
2019-03-23T03:47:05.820Z,6.06
2019-03-23T03:47:41.379Z,6.06
2019-03-23T03:48:15.527Z,6.06
2019-03-23T03:48:50.212Z,6.06
2019-03-23T03:49:23.987Z,6.12
2019-03-23T03:49:57.888Z,6.12
2019-03-23T03:50:33.390Z,6.12
2019-03-23T03:51:07.139Z,6.19
2019-03-23T03:51:40.881Z,6.19
2019-03-23T03:52:14.734Z,6.19
2019-03-23T03:52:48.561Z,6.25
2019-03-23T03:53:22.365Z,6.25
2019-03-23T03:53:56.249Z,6.25
2019-03-23T03:54:30.028Z,6.31
2019-03-23T03:55:04.202Z,6.31
2019-03-23T03:55:38.944Z,6.31
2019-03-23T03:56:12.702Z,6.31
2019-03-23T03:56:46.443Z,6.31
2019-03-23T03:57:20.312Z,6.37
2019-03-23T03:57:54.161Z,6.37
2019-03-23T03:58:27.942Z,6.37
2019-03-23T03:59:01.702Z,6.37
2019-03-23T03:59:35.451Z,6.37
2019-03-23T04:00:09.741Z,6.37
2019-03-23T04:00:43.719Z,6.44
2019-03-23T04:01:18.569Z,6.44
2019-03-23T04:01:52.494Z,6.44
2019-03-23T04:02:26.205Z,6.44
2019-03-23T04:02:59.943Z,6.44
2019-03-23T04:03:33.962Z,6.44
2019-03-23T04:04:07.756Z,6.50
2019-03-23T04:04:41.471Z,6.50
2019-03-23T04:05:15.405Z,6.50
2019-03-23T04:05:49.487Z,6.50
2019-03-23T04:06:23.342Z,6.50
2019-03-23T04:06:57.104Z,6.56
2019-03-23T04:07:32.334Z,6.56
2019-03-23T04:08:11.625Z,6.50
2019-03-23T04:08:41.851Z,6.56
2019-03-23T04:09:15.587Z,6.56
2019-03-23T04:09:49.510Z,6.56
2019-03-23T04:10:23.243Z,6.56
2019-03-23T04:10:56.894Z,6.56
2019-03-23T04:11:31.971Z,6.62
2019-03-23T04:12:06.743Z,6.62
2019-03-23T04:12:40.594Z,6.62
2019-03-23T04:13:14.368Z,6.62
2019-03-23T04:13:48.429Z,6.62
2019-03-23T04:14:22.163Z,6.62
2019-03-23T04:14:55.882Z,6.69
2019-03-23T04:15:29.667Z,6.69
2019-03-23T04:16:03.667Z,6.69
2019-03-23T04:16:37.639Z,6.69
2019-03-23T04:17:11.501Z,6.69
2019-03-23T04:17:45.328Z,6.69
2019-03-23T04:18:19.126Z,6.69
2019-03-23T04:18:53.032Z,6.69
2019-03-23T04:19:26.921Z,6.69
2019-03-23T04:20:00.979Z,6.69
2019-03-23T04:20:34.629Z,6.75
2019-03-23T04:21:08.466Z,6.75
2019-03-23T04:21:42.182Z,6.75
2019-03-23T04:22:15.953Z,6.75
2019-03-23T04:22:49.823Z,6.75
2019-03-23T04:23:23.670Z,6.75
2019-03-23T04:23:57.476Z,6.75
2019-03-23T04:24:31.469Z,6.75
2019-03-23T04:25:05.847Z,6.75
2019-03-23T04:25:39.727Z,6.75
2019-03-23T04:26:13.507Z,6.75
2019-03-23T04:26:48.364Z,6.81
2019-03-23T04:27:22.177Z,6.81
2019-03-23T04:27:56.065Z,6.81
2019-03-23T04:28:29.952Z,6.87
2019-03-23T04:29:04.783Z,6.81
2019-03-23T04:29:38.597Z,6.81
2019-03-23T04:30:12.580Z,6.87
2019-03-23T04:30:46.377Z,6.87
2019-03-23T04:31:20.240Z,6.87
2019-03-23T04:31:54.042Z,6.87
2019-03-23T04:32:27.859Z,6.87
2019-03-23T04:33:01.599Z,6.87
2019-03-23T04:33:35.416Z,6.87
2019-03-23T04:34:09.116Z,6.87
2019-03-23T04:34:43.060Z,6.94
2019-03-23T04:35:16.872Z,6.94
2019-03-23T04:35:50.589Z,6.94
2019-03-23T04:36:24.343Z,6.94
2019-03-23T04:36:58.217Z,6.94
2019-03-23T04:37:32.091Z,6.94
2019-03-23T04:38:05.919Z,6.94
2019-03-23T04:38:39.837Z,6.94
2019-03-23T04:39:13.815Z,6.94
2019-03-23T04:39:47.574Z,6.94
2019-03-23T04:40:21.711Z,6.94
2019-03-23T04:40:56.388Z,6.94
2019-03-23T04:41:30.181Z,7.00
2019-03-23T04:42:04.626Z,7.00
2019-03-23T04:42:38.478Z,7.00
2019-03-23T04:43:12.326Z,7.00
2019-03-23T04:43:46.110Z,7.00
2019-03-23T04:44:19.908Z,7.00
2019-03-23T04:44:53.744Z,7.00
2019-03-23T04:45:27.746Z,7.00
2019-03-23T04:46:01.696Z,7.00
2019-03-23T04:46:35.402Z,7.00
2019-03-23T04:47:09.174Z,7.06
2019-03-23T04:47:42.947Z,7.00
2019-03-23T04:48:16.790Z,7.06
2019-03-23T04:48:50.660Z,7.06
2019-03-23T04:49:24.446Z,7.06
2019-03-23T04:49:58.264Z,7.06
2019-03-23T04:50:32.142Z,7.06
2019-03-23T04:51:05.898Z,7.06
2019-03-23T04:51:40.656Z,7.06
2019-03-23T04:52:14.378Z,7.06
2019-03-23T04:52:49.752Z,7.06
2019-03-23T04:53:23.505Z,7.06
2019-03-23T04:53:57.368Z,7.12
2019-03-23T04:54:31.240Z,7.12
2019-03-23T04:55:09.542Z,7.12
2019-03-23T04:55:43.386Z,7.12
2019-03-23T04:56:17.104Z,7.12
2019-03-23T04:56:50.944Z,7.12
2019-03-23T04:57:24.578Z,7.12
2019-03-23T04:57:58.568Z,7.12
2019-03-23T04:58:32.342Z,7.12
2019-03-23T04:59:06.143Z,7.12
2019-03-23T04:59:39.975Z,7.19
2019-03-23T05:00:14.737Z,7.19
2019-03-23T05:00:48.734Z,7.19
2019-03-23T05:01:22.587Z,7.19
2019-03-23T05:01:57.658Z,7.19
2019-03-23T05:02:31.419Z,7.19
2019-03-23T05:03:06.452Z,7.19
2019-03-23T05:03:40.291Z,7.19
2019-03-23T05:04:14.048Z,7.19
2019-03-23T05:04:47.810Z,7.19
2019-03-23T05:05:21.648Z,7.25
2019-03-23T05:05:55.602Z,7.25
2019-03-23T05:06:29.430Z,7.25
2019-03-23T05:07:03.410Z,7.25
2019-03-23T05:07:37.428Z,7.25
2019-03-23T05:08:11.936Z,7.25
2019-03-23T05:08:45.797Z,7.25
2019-03-23T05:09:19.716Z,7.25
2019-03-23T05:09:53.504Z,7.25
2019-03-23T05:10:27.302Z,7.25
2019-03-23T05:11:01.136Z,7.25
2019-03-23T05:11:35.000Z,7.25
2019-03-23T05:12:08.808Z,7.25
2019-03-23T05:12:42.573Z,7.25
2019-03-23T05:13:16.410Z,7.25
2019-03-23T05:13:50.360Z,7.25
2019-03-23T05:14:24.224Z,7.25
2019-03-23T05:14:59.338Z,7.25
2019-03-23T05:15:33.274Z,7.25
2019-03-23T05:16:07.174Z,7.31
2019-03-23T05:16:40.981Z,7.25
2019-03-23T05:17:14.850Z,7.25
2019-03-23T05:17:48.702Z,7.25
2019-03-23T05:18:22.728Z,7.25
2019-03-23T05:18:56.458Z,7.31
2019-03-23T05:19:30.348Z,7.31
2019-03-23T05:20:06.120Z,7.31
2019-03-23T05:20:40.038Z,7.31
2019-03-23T05:21:13.996Z,7.37
2019-03-23T05:21:47.924Z,7.37
2019-03-23T05:22:21.832Z,7.37
2019-03-23T05:22:55.580Z,7.37
2019-03-23T05:23:29.548Z,7.37
2019-03-23T05:24:03.510Z,7.37
2019-03-23T05:24:37.362Z,7.44
2019-03-23T05:25:23.431Z,7.37
2019-03-23T05:25:57.292Z,7.37
2019-03-23T05:26:32.301Z,7.44
2019-03-23T05:27:06.154Z,7.37
2019-03-23T05:27:39.951Z,7.44
2019-03-23T05:28:13.832Z,7.44
2019-03-23T05:28:47.700Z,7.44
2019-03-23T05:29:21.652Z,7.44
2019-03-23T05:29:55.486Z,7.44
2019-03-23T05:30:29.401Z,7.44
2019-03-23T05:31:03.388Z,7.50
2019-03-23T05:31:37.244Z,7.50
2019-03-23T05:32:10.867Z,7.50
2019-03-23T05:32:44.512Z,7.50
2019-03-23T05:33:18.429Z,7.50
2019-03-23T05:33:52.218Z,7.50
2019-03-23T05:34:26.054Z,7.50
2019-03-23T05:34:59.710Z,7.50
2019-03-23T05:35:33.438Z,7.50
2019-03-23T05:36:07.306Z,7.50
2019-03-23T05:36:42.716Z,7.50
2019-03-23T05:37:16.531Z,7.50
2019-03-23T05:37:50.372Z,7.50
2019-03-23T05:38:24.274Z,7.50
2019-03-23T05:38:59.680Z,7.50
2019-03-23T05:39:33.507Z,7.50
2019-03-23T05:40:07.568Z,7.56
2019-03-23T05:40:41.415Z,7.56
2019-03-23T05:41:15.299Z,7.56
2019-03-23T05:41:49.127Z,7.50
2019-03-23T05:42:22.878Z,7.56
2019-03-23T05:42:56.710Z,7.50
2019-03-23T05:43:30.446Z,7.50
2019-03-23T05:44:04.405Z,7.50
2019-03-23T05:44:38.160Z,7.50
2019-03-23T05:45:12.544Z,7.56
2019-03-23T05:45:46.338Z,7.50
2019-03-23T05:46:20.116Z,7.50
2019-03-23T05:46:54.484Z,7.56
2019-03-23T05:47:28.448Z,7.56
2019-03-23T05:48:02.323Z,7.56
2019-03-23T05:48:36.170Z,7.56
2019-03-23T05:49:11.436Z,7.56
2019-03-23T05:49:45.170Z,7.56
2019-03-23T05:50:19.064Z,7.56
2019-03-23T05:50:53.003Z,7.56
2019-03-23T05:51:26.736Z,7.62
2019-03-23T05:52:01.541Z,7.62
2019-03-23T05:52:35.575Z,7.62
2019-03-23T05:53:09.576Z,7.62
2019-03-23T05:53:43.466Z,7.62
2019-03-23T05:54:17.440Z,7.62
2019-03-23T05:54:51.463Z,7.62
2019-03-23T05:55:25.450Z,7.62
2019-03-23T05:55:59.214Z,7.62
2019-03-23T05:56:32.863Z,7.62
2019-03-23T05:57:06.702Z,7.62
2019-03-23T05:57:40.478Z,7.62
2019-03-23T05:58:14.266Z,7.62
2019-03-23T05:58:48.122Z,7.69
2019-03-23T05:59:21.966Z,7.69
2019-03-23T05:59:55.814Z,7.69
2019-03-23T06:00:29.534Z,7.69
2019-03-23T06:01:03.287Z,7.69
2019-03-23T06:01:37.014Z,7.69
2019-03-23T06:02:10.904Z,7.69
2019-03-23T06:02:44.867Z,7.69
2019-03-23T06:03:18.764Z,7.69
2019-03-23T06:03:52.747Z,7.69
2019-03-23T06:04:26.534Z,7.69
2019-03-23T06:05:00.540Z,7.69
2019-03-23T06:05:34.791Z,7.69
2019-03-23T06:06:08.654Z,7.69
2019-03-23T06:06:42.458Z,7.69
2019-03-23T06:07:16.611Z,7.75
2019-03-23T06:07:50.477Z,7.75
2019-03-23T06:08:24.244Z,7.75
2019-03-23T06:08:58.111Z,7.75
2019-03-23T06:09:31.840Z,7.75
2019-03-23T06:10:07.063Z,7.75
2019-03-23T06:10:40.792Z,7.75
2019-03-23T06:11:14.754Z,7.75
2019-03-23T06:11:49.740Z,7.75
2019-03-23T06:12:23.604Z,7.75
2019-03-23T06:12:57.662Z,7.81
2019-03-23T06:13:31.507Z,7.81
2019-03-23T06:14:05.485Z,7.81
2019-03-23T06:14:39.230Z,7.81
2019-03-23T06:15:13.272Z,7.81
2019-03-23T06:15:47.059Z,7.87
2019-03-23T06:16:20.806Z,7.87
2019-03-23T06:16:54.459Z,7.87
2019-03-23T06:17:28.206Z,7.87
2019-03-23T06:18:01.886Z,7.87
2019-03-23T06:18:35.748Z,7.87
2019-03-23T06:19:10.728Z,7.94
2019-03-23T06:19:46.100Z,7.94
2019-03-23T06:20:19.957Z,7.94
2019-03-23T06:20:54.774Z,7.94
2019-03-23T06:21:28.750Z,7.94
2019-03-23T06:22:02.666Z,7.94
2019-03-23T06:22:36.581Z,7.94
2019-03-23T06:23:10.318Z,8.00
2019-03-23T06:23:44.090Z,8.00
2019-03-23T06:24:17.886Z,8.00
2019-03-23T06:24:52.803Z,8.00
2019-03-23T06:25:26.567Z,8.00
2019-03-23T06:26:00.428Z,8.00
2019-03-23T06:26:34.264Z,8.00
2019-03-23T06:27:08.036Z,8.00
2019-03-23T06:27:42.041Z,8.00
2019-03-23T06:28:15.775Z,8.00
2019-03-23T06:28:49.684Z,8.06
2019-03-23T06:29:23.448Z,8.06
2019-03-23T06:29:57.286Z,8.06
2019-03-23T06:30:31.152Z,8.06
2019-03-23T06:31:04.986Z,8.06
2019-03-23T06:31:38.764Z,8.06
2019-03-23T06:32:12.592Z,8.13
2019-03-23T06:32:46.469Z,8.13
2019-03-23T06:33:20.178Z,8.13
2019-03-23T06:33:54.172Z,8.13
2019-03-23T06:34:28.081Z,8.13
2019-03-23T06:35:02.060Z,8.19
2019-03-23T06:35:35.895Z,8.19
2019-03-23T06:36:09.782Z,8.19
2019-03-23T06:36:43.618Z,8.19
2019-03-23T06:37:17.470Z,8.25
2019-03-23T06:37:51.282Z,8.25
2019-03-23T06:38:25.126Z,8.25
2019-03-23T06:39:05.453Z,8.25
2019-03-23T06:39:34.568Z,8.31
2019-03-23T06:40:08.805Z,8.31
2019-03-23T06:40:42.683Z,8.31
2019-03-23T06:41:16.660Z,8.31
2019-03-23T06:41:50.421Z,8.31
2019-03-23T06:42:24.292Z,8.31
2019-03-23T06:42:59.950Z,8.38
2019-03-23T06:43:33.910Z,8.38
2019-03-23T06:44:07.878Z,8.38
2019-03-23T06:44:41.774Z,8.38
2019-03-23T06:45:15.626Z,8.38
2019-03-23T06:45:49.504Z,8.38
2019-03-23T06:46:23.345Z,8.38
2019-03-23T06:46:57.086Z,8.38
2019-03-23T06:47:30.966Z,8.38
2019-03-23T06:48:04.794Z,8.38
2019-03-23T06:48:38.696Z,8.38
2019-03-23T06:49:13.585Z,8.38
2019-03-23T06:49:47.403Z,8.38
2019-03-23T06:50:21.308Z,8.38
2019-03-23T06:50:55.309Z,8.38
2019-03-23T06:51:29.070Z,8.38
2019-03-23T06:52:03.014Z,8.38
2019-03-23T06:52:36.868Z,8.38
2019-03-23T06:53:10.774Z,8.38
2019-03-23T06:53:44.509Z,8.38
2019-03-23T06:54:18.268Z,8.38
2019-03-23T06:54:52.106Z,8.38
2019-03-23T06:55:25.877Z,8.38
2019-03-23T06:55:59.596Z,8.38
2019-03-23T06:56:33.433Z,8.38
2019-03-23T06:57:07.384Z,8.38
2019-03-23T06:57:41.231Z,8.38
2019-03-23T06:58:15.164Z,8.38
2019-03-23T06:58:48.964Z,8.38
2019-03-23T06:59:22.809Z,8.38
2019-03-23T06:59:56.576Z,8.38
2019-03-23T07:00:30.334Z,8.38
2019-03-23T07:01:04.390Z,8.38
2019-03-23T07:01:38.196Z,8.38
2019-03-23T07:02:12.016Z,8.38
2019-03-23T07:02:45.923Z,8.31
2019-03-23T07:03:19.690Z,8.31
2019-03-23T07:03:53.563Z,8.38
2019-03-23T07:04:28.421Z,8.38
2019-03-23T07:05:02.293Z,8.31
2019-03-23T07:05:36.206Z,8.31
2019-03-23T07:06:10.166Z,8.31
2019-03-23T07:06:44.033Z,8.31
2019-03-23T07:07:17.903Z,8.31
2019-03-23T07:07:51.656Z,8.31
2019-03-23T07:08:31.966Z,8.31
2019-03-23T07:09:01.222Z,8.31
2019-03-23T07:09:35.103Z,8.31
2019-03-23T07:10:10.682Z,8.31
2019-03-23T07:10:44.690Z,8.31
2019-03-23T07:11:18.430Z,8.31
2019-03-23T07:11:52.356Z,8.38
2019-03-23T07:12:27.225Z,8.38
2019-03-23T07:13:01.139Z,8.38
2019-03-23T07:13:34.913Z,8.38
2019-03-23T07:14:08.884Z,8.38
2019-03-23T07:14:42.785Z,8.38
2019-03-23T07:15:20.250Z,8.38
2019-03-23T07:15:52.541Z,8.38
2019-03-23T07:16:26.480Z,8.38
2019-03-23T07:17:00.234Z,8.38
2019-03-23T07:17:34.146Z,8.38
2019-03-23T07:18:07.925Z,8.44
2019-03-23T07:18:42.028Z,8.44
2019-03-23T07:19:15.795Z,8.44
2019-03-23T07:19:49.678Z,8.44
2019-03-23T07:20:24.982Z,8.44
2019-03-23T07:20:58.870Z,8.44
2019-03-23T07:21:32.821Z,8.44
2019-03-23T07:22:06.718Z,8.44
2019-03-23T07:22:40.712Z,8.44
2019-03-23T07:23:14.496Z,8.44
2019-03-23T07:23:48.441Z,8.50
2019-03-23T07:24:23.798Z,8.50
2019-03-23T07:24:57.545Z,8.50
2019-03-23T07:25:31.466Z,8.50
2019-03-23T07:26:05.442Z,8.50
2019-03-23T07:26:39.465Z,8.50
2019-03-23T07:27:13.422Z,8.50
2019-03-23T07:27:47.421Z,8.44
2019-03-23T07:28:21.305Z,8.50
2019-03-23T07:28:55.050Z,8.50
2019-03-23T07:29:28.890Z,8.50
2019-03-23T07:30:03.977Z,8.50
2019-03-23T07:30:37.950Z,8.44
2019-03-23T07:31:11.930Z,8.50
2019-03-23T07:31:45.833Z,8.50
2019-03-23T07:32:19.583Z,8.50
2019-03-23T07:32:54.034Z,8.50
2019-03-23T07:33:27.912Z,8.50
2019-03-23T07:34:01.552Z,8.50